createdAt,value
2019-01-10T00:00:15.086Z,97.60
2019-01-10T00:02:43.424Z,97.90
2019-01-10T00:05:12.109Z,97.50
2019-01-10T00:07:40.467Z,97.40
2019-01-10T00:10:13.875Z,97.40
2019-01-10T00:12:41.910Z,97.30
2019-01-10T00:15:18.139Z,97.40
2019-01-10T00:17:46.492Z,97.70
2019-01-10T00:20:16.890Z,97.20
2019-01-10T00:22:45.181Z,97.30
2019-01-10T00:25:14.499Z,97.20
2019-01-10T00:27:42.786Z,97.00
2019-01-10T00:30:14.434Z,96.90
2019-01-10T00:32:42.776Z,97.10
2019-01-10T00:35:11.696Z,97.20
2019-01-10T00:37:40.087Z,97.20
2019-01-10T00:40:10.903Z,97.50
2019-01-10T00:42:48.568Z,97.10
2019-01-10T00:45:11.973Z,97.00
2019-01-10T00:47:40.263Z,97.10
2019-01-10T00:50:14.216Z,97.10
2019-01-10T00:52:42.502Z,97.30
2019-01-10T00:55:10.820Z,97.10
2019-01-10T00:57:39.085Z,97.00
2019-01-10T01:00:10.620Z,97.10
2019-01-10T01:02:38.919Z,97.10
2019-01-10T01:05:09.993Z,97.20
2019-01-10T01:07:38.279Z,97.20
2019-01-10T01:10:10.173Z,97.10
2019-01-10T01:12:38.467Z,96.80
2019-01-10T01:15:09.996Z,97.20
2019-01-10T01:17:38.277Z,97.30
2019-01-10T01:20:08.894Z,97.20
2019-01-10T01:22:37.206Z,97.10
2019-01-10T01:25:08.397Z,97.40
2019-01-10T01:27:36.920Z,97.30
2019-01-10T01:30:11.805Z,97.40
2019-01-10T01:32:40.161Z,97.40
2019-01-10T01:35:08.675Z,97.30
2019-01-10T01:37:36.950Z,97.20
2019-01-10T01:40:14.418Z,97.00
2019-01-10T01:42:42.756Z,96.90
2019-01-10T01:45:12.361Z,97.10
2019-01-10T01:47:40.683Z,97.10
2019-01-10T01:50:12.289Z,97.10
2019-01-10T01:52:40.639Z,97.10
2019-01-10T01:55:08.952Z,97.00
2019-01-10T01:57:37.303Z,97.00
2019-01-10T02:00:08.854Z,96.90
2019-01-10T02:02:37.168Z,97.10
2019-01-10T02:05:06.778Z,97.10
2019-01-10T02:07:35.047Z,97.20
2019-01-10T02:10:03.627Z,97.20
2019-01-10T02:12:31.898Z,96.90
2019-01-10T02:15:00.190Z,97.10
2019-01-10T02:17:28.571Z,97.20
2019-01-10T02:19:56.879Z,97.10
2019-01-10T02:22:25.148Z,97.10
2019-01-10T02:24:53.449Z,97.30
2019-01-10T02:27:21.723Z,97.10
2019-01-10T02:29:50.012Z,97.20
2019-01-10T02:32:18.378Z,97.10
2019-01-10T02:34:46.649Z,97.30
2019-01-10T02:37:14.922Z,97.10
2019-01-10T02:39:43.212Z,97.10
2019-01-10T02:42:11.493Z,97.10
2019-01-10T02:44:39.788Z,97.10
2019-01-10T02:47:08.128Z,97.00
2019-01-10T02:49:36.527Z,97.00
2019-01-10T02:52:04.806Z,97.10
2019-01-10T02:54:33.096Z,97.10
2019-01-10T02:57:01.455Z,97.00
2019-01-10T02:59:29.810Z,97.00
2019-01-10T03:01:58.224Z,96.80
2019-01-10T03:04:26.509Z,97.00
2019-01-10T03:06:54.790Z,97.00
2019-01-10T03:09:23.234Z,96.90
2019-01-10T03:11:51.766Z,96.70
2019-01-10T03:14:20.038Z,96.70
2019-01-10T03:16:48.312Z,96.80
2019-01-10T03:19:16.648Z,96.80
2019-01-10T03:21:45.001Z,96.70
2019-01-10T03:24:13.351Z,96.70
2019-01-10T03:26:41.678Z,96.80
2019-01-10T03:29:11.561Z,96.70
2019-01-10T03:31:39.967Z,96.60
2019-01-10T03:34:08.328Z,96.80
2019-01-10T03:36:36.608Z,97.00
2019-01-10T03:39:07.657Z,97.00
2019-01-10T03:41:36.099Z,97.10
2019-01-10T03:44:05.154Z,97.00
2019-01-10T03:46:33.502Z,97.10
2019-01-10T03:49:01.817Z,97.20
2019-01-10T03:51:30.240Z,97.40
2019-01-10T03:53:58.578Z,97.40
2019-01-10T03:56:26.890Z,97.70
2019-01-10T03:58:55.168Z,97.60
2019-01-10T04:01:23.453Z,97.40
2019-01-10T04:03:52.008Z,97.40
2019-01-10T04:06:20.353Z,97.40
2019-01-10T04:08:48.664Z,97.40
2019-01-10T04:11:16.940Z,97.50
2019-01-10T04:13:45.209Z,97.70
2019-01-10T04:16:13.512Z,97.40
2019-01-10T04:18:41.780Z,97.20
2019-01-10T04:21:17.026Z,97.60
2019-01-10T04:23:40.098Z,97.50
2019-01-10T04:26:08.447Z,97.60
2019-01-10T04:28:36.993Z,97.40
2019-01-10T04:31:05.806Z,97.40
2019-01-10T04:33:34.145Z,97.30
2019-01-10T04:36:02.420Z,97.50
2019-01-10T04:38:30.809Z,97.30
2019-01-10T04:40:59.126Z,97.30
2019-01-10T04:43:27.422Z,97.10
2019-01-10T04:45:55.698Z,97.60
2019-01-10T04:48:23.985Z,97.10
2019-01-10T04:50:52.296Z,96.90
2019-01-10T04:53:20.779Z,96.80
2019-01-10T04:55:49.112Z,96.90
2019-01-10T04:58:17.401Z,97.10
2019-01-10T05:00:45.672Z,97.30
2019-01-10T05:03:13.999Z,97.20
2019-01-10T05:05:42.265Z,97.30
2019-01-10T05:08:10.554Z,97.50
2019-01-10T05:10:38.922Z,97.50
2019-01-10T05:13:07.480Z,97.40
2019-01-10T05:15:35.745Z,97.30
2019-01-10T05:18:04.069Z,97.40
2019-01-10T05:20:32.359Z,97.30
2019-01-10T05:23:00.719Z,97.70
2019-01-10T05:25:29.030Z,97.50
2019-01-10T05:27:57.306Z,97.90
2019-01-10T05:30:25.587Z,97.60
2019-01-10T05:32:53.930Z,97.50
2019-01-10T05:35:22.211Z,97.50
2019-01-10T05:37:50.592Z,97.50
2019-01-10T05:40:18.936Z,97.40
2019-01-10T05:42:47.219Z,97.50
2019-01-10T05:45:17.256Z,97.50
2019-01-10T05:47:45.620Z,97.70
2019-01-10T05:50:17.683Z,97.90
2019-01-10T05:52:45.859Z,98.40
2019-01-10T05:55:16.945Z,97.90
2019-01-10T05:57:45.281Z,98.00
2019-01-10T06:00:16.973Z,97.80
2019-01-10T06:02:45.247Z,97.90
2019-01-10T06:05:13.515Z,97.80
2019-01-10T06:07:41.794Z,97.80
2019-01-10T06:10:24.681Z,97.70
2019-01-10T06:12:52.955Z,97.70
2019-01-10T06:15:21.256Z,97.60
2019-01-10T06:17:49.602Z,97.70
2019-01-10T06:20:20.045Z,97.70
2019-01-10T06:22:48.326Z,97.80
2019-01-10T06:25:16.618Z,98.00
2019-01-10T06:27:45.003Z,98.00
2019-01-10T06:30:16.287Z,98.00
2019-01-10T06:32:44.571Z,97.90
2019-01-10T06:35:12.879Z,98.20
2019-01-10T06:37:41.156Z,97.90
2019-01-10T06:40:12.279Z,97.80
2019-01-10T06:42:40.621Z,97.70
2019-01-10T06:45:11.198Z,97.60
2019-01-10T06:47:39.554Z,97.70
2019-01-10T06:50:10.668Z,97.50
2019-01-10T06:52:38.962Z,97.40
2019-01-10T06:55:09.683Z,97.40
2019-01-10T06:57:37.969Z,97.20
2019-01-10T07:00:09.508Z,97.40
2019-01-10T07:02:37.784Z,97.40
2019-01-10T07:05:06.215Z,97.40
2019-01-10T07:07:34.633Z,97.30
2019-01-10T07:10:06.449Z,97.50
2019-01-10T07:12:34.785Z,97.30
2019-01-10T07:15:03.075Z,97.40
2019-01-10T07:17:31.473Z,97.20
2019-01-10T07:19:59.911Z,97.40
2019-01-10T07:22:28.198Z,97.20
2019-01-10T07:24:56.559Z,97.20
2019-01-10T07:27:24.828Z,97.40
2019-01-10T07:29:53.744Z,97.30
2019-01-10T07:32:22.024Z,97.20
2019-01-10T07:34:50.303Z,96.80
2019-01-10T07:37:18.593Z,96.70
2019-01-10T07:39:46.871Z,97.10
2019-01-10T07:42:15.176Z,97.10
2019-01-10T07:44:43.529Z,97.20
2019-01-10T07:47:11.815Z,97.40
2019-01-10T07:49:40.251Z,97.10
2019-01-10T07:52:08.600Z,96.90
2019-01-10T07:54:36.891Z,97.00
2019-01-10T07:57:05.164Z,96.90
2019-01-10T07:59:34.382Z,97.10
2019-01-10T08:02:02.691Z,97.40
2019-01-10T08:04:31.019Z,97.20
2019-01-10T08:06:59.318Z,97.20
2019-01-10T08:09:27.676Z,97.20
2019-01-10T08:12:00.663Z,97.40
2019-01-10T08:14:25.954Z,97.30
2019-01-10T08:16:54.271Z,97.20
2019-01-10T08:19:22.547Z,96.80
2019-01-10T08:21:50.914Z,96.90
2019-01-10T08:24:19.231Z,96.90
2019-01-10T08:26:47.520Z,97.10
2019-01-10T08:29:15.863Z,97.40
2019-01-10T08:31:44.308Z,97.40
2019-01-10T08:34:12.677Z,97.60
2019-01-10T08:36:40.964Z,97.60
2019-01-10T08:39:09.348Z,97.70
2019-01-10T08:41:37.614Z,97.80
2019-01-10T08:44:06.107Z,97.90
2019-01-10T08:46:34.382Z,97.70
2019-01-10T08:49:02.681Z,97.70
2019-01-10T08:51:31.027Z,97.70
2019-01-10T08:53:59.347Z,97.70
2019-01-10T08:56:27.638Z,97.40
2019-01-10T08:58:55.914Z,97.40
2019-01-10T09:01:24.230Z,97.40
2019-01-10T09:03:52.507Z,97.30
2019-01-10T09:06:20.792Z,97.20
2019-01-10T09:08:49.074Z,97.00
2019-01-10T09:11:17.356Z,96.90
2019-01-10T09:13:45.670Z,96.50
2019-01-10T09:16:14.017Z,96.60
2019-01-10T09:18:42.296Z,96.50
2019-01-10T09:21:10.670Z,96.50
2019-01-10T09:23:38.942Z,96.30
2019-01-10T09:26:07.228Z,96.20
2019-01-10T09:28:35.654Z,96.00
2019-01-10T09:31:04.030Z,96.10
2019-01-10T09:33:32.288Z,95.90
2019-01-10T09:36:00.563Z,95.90
2019-01-10T09:38:28.947Z,95.70
2019-01-10T09:40:57.227Z,95.70
2019-01-10T09:43:25.497Z,95.00
2019-01-10T09:45:53.781Z,95.20
2019-01-10T09:48:22.060Z,95.50
2019-01-10T09:50:50.341Z,95.70
2019-01-10T09:53:18.652Z,95.70
2019-01-10T09:55:46.925Z,95.60
2019-01-10T09:58:15.232Z,95.30
2019-01-10T10:00:43.595Z,95.40
2019-01-10T10:03:11.988Z,95.40
2019-01-10T10:05:40.267Z,95.50
2019-01-10T10:08:08.539Z,95.60
2019-01-10T10:10:36.853Z,95.60
2019-01-10T10:13:05.126Z,95.70
2019-01-10T10:15:33.487Z,95.80
2019-01-10T10:18:01.763Z,95.80
2019-01-10T10:20:30.057Z,96.00
2019-01-10T10:22:58.398Z,96.00
2019-01-10T10:25:26.799Z,95.90
2019-01-10T10:27:55.118Z,95.60
2019-01-10T10:30:23.471Z,95.70
2019-01-10T10:32:51.759Z,95.60
2019-01-10T10:35:20.406Z,95.80
2019-01-10T10:37:48.714Z,95.70
2019-01-10T10:40:19.002Z,95.70
2019-01-10T10:42:47.920Z,95.40
2019-01-10T10:45:17.904Z,95.30
2019-01-10T10:47:46.188Z,95.30
2019-01-10T10:50:20.219Z,95.40
2019-01-10T10:52:48.678Z,95.40
2019-01-10T10:55:16.967Z,95.20
2019-01-10T10:57:45.270Z,95.00
2019-01-10T11:00:22.714Z,95.10
2019-01-10T11:02:51.002Z,95.10
2019-01-10T11:05:19.300Z,95.10
2019-01-10T11:07:47.622Z,94.60
2019-01-10T11:10:18.321Z,94.60
2019-01-10T11:12:46.682Z,94.90
2019-01-10T11:15:14.950Z,94.60
2019-01-10T11:17:43.239Z,94.70
2019-01-10T11:20:14.602Z,94.70
2019-01-10T11:22:42.885Z,94.70
2019-01-10T11:25:14.098Z,94.70
2019-01-10T11:27:42.409Z,94.60
2019-01-10T11:30:19.207Z,94.50
2019-01-10T11:32:47.509Z,94.20
2019-01-10T11:35:15.779Z,94.20
2019-01-10T11:37:44.058Z,94.00
2019-01-10T11:40:15.379Z,93.80
2019-01-10T11:42:43.716Z,93.70
2019-01-10T11:45:15.041Z,94.30
2019-01-10T11:47:43.318Z,93.70
2019-01-10T11:50:14.125Z,93.70
2019-01-10T11:52:42.675Z,93.50
2019-01-10T11:55:11.101Z,93.50
2019-01-10T11:57:39.796Z,93.40
2019-01-10T12:00:20.368Z,93.70
2019-01-10T12:02:48.810Z,93.50
2019-01-10T12:05:17.124Z,93.50
2019-01-10T12:07:45.394Z,93.60
2019-01-10T12:10:13.953Z,93.20
2019-01-10T12:12:42.332Z,93.60
2019-01-10T12:15:12.102Z,93.50
2019-01-10T12:17:40.488Z,94.00
2019-01-10T12:20:14.430Z,94.00
2019-01-10T12:22:42.749Z,93.90
2019-01-10T12:25:13.309Z,93.90
2019-01-10T12:27:41.581Z,93.80
2019-01-10T12:30:15.615Z,94.00
2019-01-10T12:32:43.893Z,93.70
2019-01-10T12:35:12.156Z,94.00
2019-01-10T12:37:40.490Z,93.90
2019-01-10T12:40:11.502Z,93.80
2019-01-10T12:42:39.782Z,93.90
2019-01-10T12:45:11.107Z,93.90
2019-01-10T12:47:39.372Z,93.90
2019-01-10T12:50:13.882Z,94.50
2019-01-10T12:52:42.235Z,93.90
2019-01-10T12:55:10.569Z,94.20
2019-01-10T12:57:38.901Z,94.30
2019-01-10T13:00:10.468Z,94.40
2019-01-10T13:02:38.741Z,94.30
2019-01-10T13:05:07.328Z,94.20
2019-01-10T13:07:35.676Z,94.30
2019-01-10T13:10:05.675Z,94.50
2019-01-10T13:12:34.123Z,94.30
2019-01-10T13:15:02.388Z,94.50
2019-01-10T13:17:30.663Z,94.60
2019-01-10T13:19:59.558Z,94.50
2019-01-10T13:22:27.900Z,94.50
2019-01-10T13:24:56.171Z,94.50
2019-01-10T13:27:24.471Z,94.40
2019-01-10T13:29:52.741Z,94.50
2019-01-10T13:32:21.029Z,94.40
2019-01-10T13:34:49.314Z,94.50
2019-01-10T13:37:17.632Z,94.50
2019-01-10T13:39:45.951Z,94.50
2019-01-10T13:42:14.413Z,94.50
2019-01-10T13:44:42.701Z,94.50
2019-01-10T13:47:11.097Z,94.50
2019-01-10T13:49:39.441Z,94.50
2019-01-10T13:52:07.737Z,94.60
2019-01-10T13:54:36.059Z,94.90
2019-01-10T13:57:04.331Z,95.00
2019-01-10T13:59:32.602Z,94.80
2019-01-10T14:02:00.910Z,94.80
2019-01-10T14:04:29.244Z,95.00
2019-01-10T14:06:57.525Z,95.00
2019-01-10T14:09:25.908Z,94.90
2019-01-10T14:11:54.181Z,94.90
2019-01-10T14:14:22.463Z,95.00
2019-01-10T14:16:50.849Z,95.00
2019-01-10T14:19:19.125Z,95.20
2019-01-10T14:21:47.401Z,95.40
2019-01-10T14:24:15.726Z,95.40
2019-01-10T14:26:44.566Z,95.30
2019-01-10T14:29:12.901Z,95.00
2019-01-10T14:31:41.207Z,95.10
2019-01-10T14:34:14.163Z,95.40
2019-01-10T14:36:39.484Z,95.30
2019-01-10T14:39:08.831Z,95.40
2019-01-10T14:41:37.101Z,95.50
2019-01-10T14:44:05.373Z,95.60
2019-01-10T14:46:34.093Z,95.70
2019-01-10T14:49:02.451Z,95.70
2019-01-10T14:51:30.754Z,95.70
2019-01-10T14:53:59.051Z,95.70
2019-01-10T14:56:27.319Z,95.80
2019-01-10T14:58:55.589Z,95.80
2019-01-10T15:01:23.892Z,95.80
2019-01-10T15:03:52.172Z,95.70
2019-01-10T15:06:20.448Z,95.90
2019-01-10T15:08:48.734Z,96.20
2019-01-10T15:11:17.027Z,96.30
2019-01-10T15:13:46.086Z,96.30
2019-01-10T15:16:14.799Z,96.10
2019-01-10T15:18:43.075Z,96.20
2019-01-10T15:21:11.357Z,96.30
2019-01-10T15:23:39.723Z,96.50
2019-01-10T15:26:08.479Z,96.70
2019-01-10T15:28:36.745Z,96.90
2019-01-10T15:31:05.025Z,96.80
2019-01-10T15:33:33.302Z,96.80
2019-01-10T15:36:01.985Z,96.80
2019-01-10T15:38:30.263Z,96.80
2019-01-10T15:40:58.555Z,96.90
2019-01-10T15:43:26.853Z,97.10
2019-01-10T15:45:55.198Z,97.20
2019-01-10T15:48:23.475Z,97.20
2019-01-10T15:50:51.791Z,97.40
2019-01-10T15:53:20.079Z,97.20
2019-01-10T15:55:48.429Z,97.30
2019-01-10T15:58:16.729Z,97.40
2019-01-10T16:00:45.015Z,97.50
2019-01-10T16:03:13.294Z,97.40
2019-01-10T16:05:41.581Z,97.40
2019-01-10T16:08:09.859Z,97.60
2019-01-10T16:10:38.144Z,97.60
2019-01-10T16:13:06.499Z,97.70
2019-01-10T16:15:34.823Z,97.70
2019-01-10T16:18:03.201Z,97.80
2019-01-10T16:20:31.553Z,97.90
2019-01-10T16:22:59.838Z,98.00
2019-01-10T16:25:28.102Z,97.90
2019-01-10T16:27:56.422Z,97.80
2019-01-10T16:30:27.430Z,98.00
2019-01-10T16:32:55.869Z,98.00
2019-01-10T16:35:24.165Z,98.10
2019-01-10T16:37:52.529Z,98.10
2019-01-10T16:40:20.807Z,98.10
2019-01-10T16:42:49.088Z,98.00
2019-01-10T16:45:20.570Z,98.20
2019-01-10T16:47:48.848Z,98.20
2019-01-10T16:50:17.138Z,98.40
2019-01-10T16:52:45.486Z,98.40
2019-01-10T16:55:14.410Z,98.30
2019-01-10T16:57:42.841Z,98.40
2019-01-10T17:00:23.423Z,98.50
2019-01-10T17:02:51.760Z,98.40
2019-01-10T17:05:20.101Z,98.40
2019-01-10T17:07:48.418Z,98.40
2019-01-10T17:10:16.706Z,98.30
2019-01-10T17:12:45.102Z,98.20
2019-01-10T17:15:14.632Z,98.40
2019-01-10T17:17:42.990Z,98.20
2019-01-10T17:20:14.512Z,98.10
2019-01-10T17:22:42.791Z,98.10
2019-01-10T17:25:11.110Z,98.10
2019-01-10T17:27:39.399Z,98.10
2019-01-10T17:30:10.931Z,98.10
2019-01-10T17:32:39.471Z,98.10
2019-01-10T17:35:11.006Z,98.10
2019-01-10T17:37:39.284Z,98.10
2019-01-10T17:40:10.841Z,98.10
2019-01-10T17:42:39.489Z,98.10
2019-01-10T17:45:13.857Z,98.10
2019-01-10T17:47:43.938Z,98.20
2019-01-10T17:50:16.684Z,98.00
2019-01-10T17:52:44.975Z,97.90
2019-01-10T17:55:13.406Z,97.70
2019-01-10T17:57:41.710Z,98.00
2019-01-10T18:00:16.211Z,97.70
2019-01-10T18:02:44.602Z,97.60
2019-01-10T18:05:12.927Z,97.50
2019-01-10T18:07:41.253Z,97.50
2019-01-10T18:10:15.847Z,97.60
2019-01-10T18:12:44.185Z,97.70
2019-01-10T18:15:15.067Z,97.70
2019-01-10T18:17:43.347Z,97.70
2019-01-10T18:20:16.984Z,97.80
2019-01-10T18:22:45.253Z,97.60
2019-01-10T18:25:13.794Z,97.70
2019-01-10T18:27:42.078Z,97.60
2019-01-10T18:30:19.362Z,97.50
2019-01-10T18:32:47.645Z,97.50
2019-01-10T18:35:16.260Z,97.30
2019-01-10T18:37:44.542Z,97.30
2019-01-10T18:40:17.629Z,97.20
2019-01-10T18:42:45.906Z,97.30
2019-01-10T18:45:16.824Z,97.20
2019-01-10T18:47:45.182Z,97.30
2019-01-10T18:50:18.854Z,97.60
2019-01-10T18:52:47.138Z,97.40
2019-01-10T18:55:15.418Z,97.20
2019-01-10T18:57:43.709Z,97.30
2019-01-10T19:00:23.389Z,97.30
2019-01-10T19:02:51.691Z,97.90
2019-01-10T19:05:20.039Z,97.50
2019-01-10T19:07:48.316Z,97.50
2019-01-10T19:10:19.680Z,97.50
2019-01-10T19:12:47.954Z,97.80
2019-01-10T19:15:16.261Z,98.00
2019-01-10T19:17:44.619Z,98.00
2019-01-10T19:20:21.199Z,98.00
2019-01-10T19:22:49.536Z,98.40
2019-01-10T19:25:17.918Z,99.00
2019-01-10T19:27:46.199Z,98.60
2019-01-10T19:30:26.111Z,98.60
2019-01-10T19:32:54.466Z,98.50
2019-01-10T19:35:22.886Z,98.70
2019-01-10T19:37:51.167Z,98.90
2019-01-10T19:40:21.099Z,98.90
2019-01-10T19:42:49.451Z,99.00
2019-01-10T19:45:20.040Z,99.00
2019-01-10T19:47:48.478Z,98.70
2019-01-10T19:50:19.498Z,98.70
2019-01-10T19:52:48.005Z,98.80
2019-01-10T19:55:18.754Z,98.80
2019-01-10T19:57:47.403Z,98.70
2019-01-10T20:00:30.537Z,98.50
2019-01-10T20:02:58.828Z,98.40
2019-01-10T20:05:27.675Z,98.80
2019-01-10T20:07:56.054Z,98.90
2019-01-10T20:10:24.452Z,98.80
2019-01-10T20:12:52.721Z,98.70
2019-01-10T20:15:21.358Z,98.80
2019-01-10T20:17:50.106Z,98.90
2019-01-10T20:20:24.700Z,98.80
2019-01-10T20:22:53.354Z,98.70
2019-01-10T20:25:21.782Z,98.50
2019-01-10T20:27:50.135Z,98.70
2019-01-10T20:30:18.885Z,98.80
2019-01-10T20:32:47.163Z,98.80
2019-01-10T20:35:15.704Z,98.90
2019-01-10T20:37:44.035Z,98.70
2019-01-10T20:40:14.546Z,98.30
2019-01-10T20:42:48.402Z,98.30
2019-01-10T20:45:16.738Z,98.40
2019-01-10T20:47:45.191Z,98.60
2019-01-10T20:50:15.100Z,98.50
2019-01-10T20:52:43.377Z,98.40
2019-01-10T20:55:14.350Z,98.60
2019-01-10T20:57:42.674Z,98.60
2019-01-10T21:00:24.476Z,98.50
2019-01-10T21:02:52.792Z,98.40
2019-01-10T21:05:21.052Z,98.40
2019-01-10T21:07:50.513Z,98.40
2019-01-10T21:10:20.679Z,98.50
2019-01-10T21:12:49.696Z,98.40
2019-01-10T21:15:24.255Z,98.20
2019-01-10T21:17:52.530Z,98.40
2019-01-10T21:20:20.814Z,98.30
2019-01-10T21:22:49.409Z,98.30
2019-01-10T21:25:17.920Z,98.40
2019-01-10T21:27:46.274Z,98.40
2019-01-10T21:30:20.021Z,98.30
2019-01-10T21:32:49.958Z,98.30
2019-01-10T21:35:18.874Z,98.10
2019-01-10T21:37:47.225Z,98.20
2019-01-10T21:40:18.115Z,98.40
2019-01-10T21:42:46.393Z,98.50
2019-01-10T21:45:18.863Z,98.30
2019-01-10T21:47:47.262Z,98.40
2019-01-10T21:50:18.372Z,98.60
2019-01-10T21:52:46.658Z,98.60
2019-01-10T21:55:15.235Z,98.50
2019-01-10T21:57:43.501Z,98.70
2019-01-10T22:00:17.502Z,98.90
2019-01-10T22:02:45.880Z,98.90
2019-01-10T22:05:14.148Z,99.10
2019-01-10T22:07:42.417Z,99.10
2019-01-10T22:10:11.867Z,99.10
2019-01-10T22:12:40.154Z,99.10
2019-01-10T22:15:11.986Z,99.20
2019-01-10T22:17:40.342Z,99.20
2019-01-10T22:20:11.944Z,99.00
2019-01-10T22:22:40.248Z,99.10
2019-01-10T22:25:08.583Z,99.30
2019-01-10T22:27:36.865Z,99.30
2019-01-10T22:30:10.949Z,99.00
2019-01-10T22:32:39.235Z,99.00
2019-01-10T22:35:10.674Z,99.20
2019-01-10T22:37:39.026Z,99.20
2019-01-10T22:40:10.562Z,99.30
2019-01-10T22:42:38.834Z,99.40
2019-01-10T22:45:08.572Z,99.30
2019-01-10T22:47:36.857Z,99.30
2019-01-10T22:50:08.444Z,99.30
2019-01-10T22:52:36.711Z,99.40
2019-01-10T22:55:07.711Z,99.40
2019-01-10T22:57:36.022Z,99.40
2019-01-10T23:00:07.775Z,99.60
2019-01-10T23:02:36.048Z,99.40
2019-01-10T23:05:04.889Z,99.40
2019-01-10T23:07:33.322Z,99.60
2019-01-10T23:10:02.764Z,99.70
2019-01-10T23:12:34.620Z,99.60
2019-01-10T23:15:13.779Z,99.80
2019-01-10T23:17:51.355Z,99.90
2019-01-10T23:20:19.626Z,99.90
2019-01-10T23:22:47.907Z,99.90
2019-01-10T23:25:16.776Z,99.90
2019-01-10T23:27:47.007Z,99.90
2019-01-10T23:30:15.317Z,99.70
2019-01-10T23:32:43.591Z,99.60
2019-01-10T23:35:12.152Z,99.40
2019-01-10T23:37:40.606Z,99.50
2019-01-10T23:40:09.741Z,99.30
2019-01-10T23:42:38.079Z,99.40
2019-01-10T23:45:07.781Z,99.40
2019-01-10T23:47:36.136Z,99.40
2019-01-10T23:50:06.368Z,99.30
2019-01-10T23:52:34.671Z,99.40
2019-01-10T23:55:03.742Z,99.60
2019-01-10T23:57:32.019Z,99.70
